Phoenix, Arizona
Traffic Map
Current Weather Conditions
Phoenix, Arizona
Clear
Clear
76°
Feels Like: 76°
Wind Chill: 76° Ceiling: Unl
Heat Index: 76° Visibility: 10mi
Dew Point: 34° Wind: 0mph
Humidity: 22% Direction: ° ()
Pressure: 29.87in Gusts: 0mph
Raw Report DataKPHX 271551Z 00000KT 10SM CLR 24/01 A2987 RMK AO2 SLP100 T02440011
Traffic Incident Summary
Active as of:
Severity:
Category:
InformationThere was an issue retrieving the traffic information for this location. Please try a different location or try again shortly.
Advertisements
Track Severe Weather on mobile